createdAt,value
2023-03-20T00:00:34.915Z,100902.50
2023-03-20T00:03:02.118Z,100902.50
2023-03-20T00:05:30.040Z,100893.16
2023-03-20T00:07:58.170Z,100889.81
2023-03-20T00:10:36.500Z,100881.34
2023-03-20T00:13:05.833Z,100881.34
2023-03-20T00:15:38.447Z,100877.16
2023-03-20T00:18:15.894Z,100873.75
2023-03-20T00:20:42.599Z,100857.53
2023-03-20T00:23:09.104Z,100864.37
2023-03-20T00:25:39.050Z,100866.94
2023-03-20T00:28:26.619Z,100853.28
2023-03-20T00:30:53.197Z,100854.16
2023-03-20T00:33:21.903Z,100856.72
2023-03-20T00:35:48.894Z,100853.31
2023-03-20T00:38:15.622Z,100861.84
2023-03-20T00:40:42.385Z,100861.88
2023-03-20T00:43:13.196Z,100859.31
2023-03-20T00:45:39.988Z,100860.16
2023-03-20T00:48:14.075Z,100856.72
2023-03-20T00:50:41.019Z,100830.22
2023-03-20T00:53:11.199Z,100853.28
2023-03-20T00:55:40.046Z,100853.31
2023-03-20T00:58:06.802Z,100849.91
2023-03-20T01:00:41.467Z,100849.91
2023-03-20T01:03:19.374Z,100836.22
2023-03-20T01:05:48.674Z,100842.19
2023-03-20T01:08:20.357Z,100843.06
2023-03-20T01:10:52.573Z,100846.34
2023-03-20T01:13:29.925Z,100852.41
2023-03-20T01:15:58.405Z,100852.34
2023-03-20T01:18:26.479Z,100839.16
2023-03-20T01:20:53.411Z,100840.50
2023-03-20T01:23:22.358Z,100826.87
2023-03-20T01:25:49.577Z,100847.13
2023-03-20T01:28:20.941Z,100841.72
2023-03-20T01:30:48.436Z,100840.03
2023-03-20T01:33:19.220Z,100836.13
2023-03-20T01:35:48.288Z,100830.81
2023-03-20T01:38:20.692Z,100835.88
2023-03-20T01:40:54.097Z,100833.59
2023-03-20T01:43:22.801Z,100844.72
2023-03-20T01:46:01.604Z,100840.50
2023-03-20T01:48:49.854Z,100840.44
2023-03-20T01:51:22.209Z,100817.38
2023-03-20T01:53:57.080Z,100831.06
2023-03-20T01:56:24.377Z,100832.78
2023-03-20T01:58:59.017Z,100831.91
2023-03-20T02:01:27.263Z,100819.91
2023-03-20T02:03:56.019Z,100833.47
2023-03-20T02:06:25.763Z,100819.87
2023-03-20T02:08:54.306Z,100825.84
2023-03-20T02:11:24.850Z,100821.62
2023-03-20T02:13:53.689Z,100813.94
2023-03-20T02:16:21.234Z,100823.28
2023-03-20T02:18:51.555Z,100815.56
2023-03-20T02:21:51.801Z,100806.97
2023-03-20T02:24:23.173Z,100805.19
2023-03-20T02:27:17.982Z,100807.72
2023-03-20T02:30:13.565Z,100809.50
2023-03-20T02:33:01.835Z,100801.72
2023-03-20T02:35:50.315Z,100784.62
2023-03-20T02:38:33.233Z,100784.94
2023-03-20T02:41:21.149Z,100800.91
2023-03-20T02:44:23.208Z,100808.84
2023-03-20T02:47:12.296Z,100824.91
2023-03-20T02:49:58.674Z,100813.09
2023-03-20T02:52:53.087Z,100821.56
2023-03-20T02:55:43.818Z,100820.84
2023-03-20T02:58:21.895Z,100787.53
2023-03-20T03:01:11.306Z,100805.44
2023-03-20T03:04:00.172Z,100813.00
2023-03-20T03:06:31.027Z,100818.22
2023-03-20T03:09:06.044Z,100819.81
2023-03-20T03:11:38.065Z,100820.56
2023-03-20T03:14:07.008Z,100820.34
2023-03-20T03:16:37.409Z,100816.00
2023-03-20T03:19:23.679Z,100813.50
2023-03-20T03:21:51.161Z,100788.00
2023-03-20T03:24:26.725Z,100810.09
2023-03-20T03:27:04.139Z,100806.53
2023-03-20T03:29:36.200Z,100799.66
2023-03-20T03:32:06.653Z,100786.78
2023-03-20T03:34:35.277Z,100790.97
2023-03-20T03:37:10.034Z,100793.59
2023-03-20T03:39:51.529Z,100763.50
2023-03-20T03:42:42.349Z,100785.69
2023-03-20T03:45:18.397Z,100779.69
2023-03-20T03:47:52.029Z,100785.63
2023-03-20T03:50:26.798Z,100766.00
2023-03-20T03:53:02.268Z,100782.06
2023-03-20T03:55:36.053Z,100773.88
2023-03-20T03:58:13.173Z,100772.16
2023-03-20T04:00:44.203Z,100770.38
2023-03-20T04:03:12.153Z,100777.03
2023-03-20T04:05:44.360Z,100775.47
2023-03-20T04:08:11.359Z,100781.34
2023-03-20T04:10:40.763Z,100773.66
2023-03-20T04:13:08.241Z,100748.00
2023-03-20T04:15:35.745Z,100777.06
2023-03-20T04:18:03.457Z,100771.19
2023-03-20T04:20:30.239Z,100767.88
2023-03-20T04:22:57.044Z,100763.50
2023-03-20T04:25:25.969Z,100766.94
2023-03-20T04:27:53.293Z,100767.78
2023-03-20T04:30:21.010Z,100770.34
2023-03-20T04:32:50.996Z,100761.84
2023-03-20T04:35:17.673Z,100769.53
2023-03-20T04:37:45.141Z,100766.13
2023-03-20T04:40:12.743Z,100766.13
2023-03-20T04:42:41.377Z,100772.13
2023-03-20T04:45:09.106Z,100774.69
2023-03-20T04:47:35.917Z,100772.16
2023-03-20T04:50:03.714Z,100764.44
2023-03-20T04:52:30.865Z,100760.16
2023-03-20T04:54:57.403Z,100766.16
2023-03-20T04:57:24.763Z,100771.28
2023-03-20T04:59:52.956Z,100763.50
2023-03-20T05:02:19.949Z,100765.81
2023-03-20T05:04:46.599Z,100760.47
2023-03-20T05:07:14.280Z,100756.56
2023-03-20T05:09:41.867Z,100767.56
2023-03-20T05:12:10.141Z,100760.31
2023-03-20T05:14:36.955Z,100761.63
2023-03-20T05:17:04.435Z,100757.09
2023-03-20T05:19:31.393Z,100752.59
2023-03-20T05:21:58.477Z,100749.94
2023-03-20T05:24:28.397Z,100757.41
2023-03-20T05:26:55.520Z,100724.06
2023-03-20T05:29:23.201Z,100747.75
2023-03-20T05:31:54.855Z,100758.87
2023-03-20T05:34:24.168Z,100744.12
2023-03-20T05:36:51.182Z,100736.84
2023-03-20T05:39:18.322Z,100746.53
2023-03-20T05:41:46.008Z,100759.59
2023-03-20T05:44:13.877Z,100758.69
2023-03-20T05:46:43.211Z,100758.06
2023-03-20T05:49:11.123Z,100748.59
2023-03-20T05:51:38.818Z,100754.03
2023-03-20T05:54:06.356Z,100754.97
2023-03-20T05:56:33.272Z,100752.25
2023-03-20T05:59:00.544Z,100758.44
2023-03-20T06:01:27.597Z,100749.13
2023-03-20T06:03:55.340Z,100742.47
2023-03-20T06:06:23.808Z,100760.56
2023-03-20T06:08:50.709Z,100746.38
2023-03-20T06:11:17.546Z,100758.41
2023-03-20T06:13:44.285Z,100752.50
2023-03-20T06:16:11.187Z,100749.31
2023-03-20T06:18:38.569Z,100752.88
2023-03-20T06:21:06.168Z,100725.31
2023-03-20T06:23:33.140Z,100750.41
2023-03-20T06:26:00.663Z,100747.28
2023-03-20T06:28:27.587Z,100750.75
2023-03-20T06:30:55.370Z,100754.50
2023-03-20T06:33:22.685Z,100749.66
2023-03-20T06:35:50.983Z,100752.50
2023-03-20T06:38:17.595Z,100743.31
2023-03-20T06:40:44.566Z,100746.47
2023-03-20T06:43:12.163Z,100741.81
2023-03-20T06:45:41.157Z,100747.00
2023-03-20T06:48:09.016Z,100735.84
2023-03-20T06:50:35.930Z,100731.56
2023-03-20T06:53:03.712Z,100733.94
2023-03-20T06:55:32.131Z,100736.25
2023-03-20T06:57:59.585Z,100733.34
2023-03-20T07:00:26.640Z,100735.31
2023-03-20T07:02:53.874Z,100731.56
2023-03-20T07:05:21.048Z,100732.44
2023-03-20T07:07:48.172Z,100731.09
2023-03-20T07:10:15.169Z,100731.56
2023-03-20T07:12:43.350Z,100732.56
2023-03-20T07:15:10.681Z,100732.09
2023-03-20T07:17:37.905Z,100727.78
2023-03-20T07:20:05.026Z,100733.13
2023-03-20T07:22:31.970Z,100733.19
2023-03-20T07:25:01.082Z,100706.34
2023-03-20T07:27:27.947Z,100724.22
2023-03-20T07:29:55.177Z,100720.78
2023-03-20T07:32:22.889Z,100713.41
2023-03-20T07:34:49.825Z,100710.09
2023-03-20T07:37:16.828Z,100709.91
2023-03-20T07:39:47.916Z,100715.06
2023-03-20T07:42:17.067Z,100715.37
2023-03-20T07:44:44.147Z,100713.72
2023-03-20T07:47:11.016Z,100712.78
2023-03-20T07:49:37.656Z,100706.31
2023-03-20T07:52:07.298Z,100701.16
2023-03-20T07:54:34.134Z,100704.75
2023-03-20T07:57:01.154Z,100696.47
2023-03-20T07:59:27.903Z,100708.03
2023-03-20T08:01:54.398Z,100699.06
2023-03-20T08:04:22.673Z,100708.19
2023-03-20T08:06:50.325Z,100703.91
2023-03-20T08:09:18.178Z,100709.00
2023-03-20T08:11:45.493Z,100714.63
2023-03-20T08:14:12.318Z,100696.56
2023-03-20T08:16:38.894Z,100699.31
2023-03-20T08:19:06.115Z,100694.00
2023-03-20T08:21:32.958Z,100693.66
2023-03-20T08:23:59.866Z,100699.59
2023-03-20T08:26:27.021Z,100695.91
2023-03-20T08:28:53.846Z,100698.25
2023-03-20T08:31:20.464Z,100693.41
2023-03-20T08:33:47.780Z,100693.88
2023-03-20T08:36:15.666Z,100692.59
2023-03-20T08:38:42.810Z,100686.41
2023-03-20T08:41:09.752Z,100685.34
2023-03-20T08:43:36.459Z,100672.34
2023-03-20T08:46:03.607Z,100686.12
2023-03-20T08:48:30.676Z,100683.66
2023-03-20T08:50:57.203Z,100676.66
2023-03-20T08:53:23.795Z,100677.09
2023-03-20T08:55:52.693Z,100679.62
2023-03-20T08:58:20.717Z,100680.44
2023-03-20T09:00:47.413Z,100681.31
2023-03-20T09:03:16.005Z,100683.53
2023-03-20T09:05:45.423Z,100675.44
2023-03-20T09:08:12.400Z,100682.13
2023-03-20T09:10:40.236Z,100676.31
2023-03-20T09:13:25.852Z,100681.06
2023-03-20T09:15:54.612Z,100670.19
2023-03-20T09:18:22.022Z,100676.59
2023-03-20T09:20:49.106Z,100667.37
2023-03-20T09:23:16.316Z,100657.91
2023-03-20T09:25:42.973Z,100658.84
2023-03-20T09:28:09.553Z,100658.75
2023-03-20T09:30:36.836Z,100647.25
2023-03-20T09:33:03.755Z,100650.00
2023-03-20T09:35:30.659Z,100642.22
2023-03-20T09:37:57.578Z,100645.56
2023-03-20T09:40:26.743Z,100637.97
2023-03-20T09:43:19.819Z,100634.06
2023-03-20T09:46:14.761Z,100615.94
2023-03-20T09:49:07.119Z,100626.28
2023-03-20T09:51:58.302Z,100625.41
2023-03-20T09:54:50.727Z,100623.47
2023-03-20T09:57:25.080Z,100613.94
2023-03-20T09:59:59.064Z,100623.66
2023-03-20T10:02:44.222Z,100622.78
2023-03-20T10:05:26.203Z,100616.37
2023-03-20T10:08:00.272Z,100616.75
2023-03-20T10:10:39.199Z,100617.06
2023-03-20T10:13:13.979Z,100609.25
2023-03-20T10:15:51.440Z,100608.62
2023-03-20T10:18:27.727Z,100606.31
2023-03-20T10:21:12.871Z,100597.44
2023-03-20T10:23:46.720Z,100604.34
2023-03-20T10:26:17.846Z,100599.03
2023-03-20T10:28:56.933Z,100597.84
2023-03-20T10:31:47.536Z,100587.69
2023-03-20T10:34:22.522Z,100584.94
2023-03-20T10:37:18.020Z,100579.87
2023-03-20T10:40:03.626Z,100565.75
2023-03-20T10:42:37.358Z,100567.47
2023-03-20T10:45:16.636Z,100570.41
2023-03-20T10:47:48.565Z,100577.34
2023-03-20T10:50:18.472Z,100558.84
2023-03-20T10:52:49.038Z,100553.84
2023-03-20T10:55:20.568Z,100564.78
2023-03-20T10:57:57.548Z,100563.06
2023-03-20T11:00:26.517Z,100552.69
2023-03-20T11:02:53.235Z,100557.06
2023-03-20T11:05:28.016Z,100530.09
2023-03-20T11:08:05.201Z,100552.19
2023-03-20T11:10:36.025Z,100547.25
2023-03-20T11:13:40.988Z,100545.69
2023-03-20T11:16:14.273Z,100539.03
2023-03-20T11:18:41.612Z,100539.66
2023-03-20T11:21:16.276Z,100541.16
2023-03-20T11:23:43.143Z,100536.72
2023-03-20T11:26:15.652Z,100530.72
2023-03-20T11:28:46.888Z,100524.06
2023-03-20T11:31:18.327Z,100522.91
2023-03-20T11:33:50.701Z,100522.00
2023-03-20T11:36:29.330Z,100527.78
2023-03-20T11:39:24.149Z,100520.53
2023-03-20T11:41:53.896Z,100520.69
2023-03-20T11:44:26.320Z,100522.31
2023-03-20T11:47:03.365Z,100521.97
2023-03-20T11:49:32.217Z,100521.28
2023-03-20T11:52:12.908Z,100514.72
2023-03-20T11:54:47.146Z,100512.47
2023-03-20T11:57:32.811Z,100506.97
2023-03-20T12:00:05.638Z,100506.56
2023-03-20T12:02:33.255Z,100495.16
2023-03-20T12:05:00.563Z,100497.72
2023-03-20T12:07:36.043Z,100498.97
2023-03-20T12:10:06.599Z,100491.75
2023-03-20T12:12:45.086Z,100482.97
2023-03-20T12:15:24.356Z,100485.72
2023-03-20T12:17:53.699Z,100484.59
2023-03-20T12:20:44.730Z,100473.97
2023-03-20T12:23:14.227Z,100484.94
2023-03-20T12:25:49.725Z,100480.53
2023-03-20T12:28:25.135Z,100472.91
2023-03-20T12:31:31.779Z,100469.78
2023-03-20T12:34:03.725Z,100465.97
2023-03-20T12:36:38.408Z,100465.31
2023-03-20T12:39:11.312Z,100455.50
2023-03-20T12:42:17.935Z,100463.06
2023-03-20T12:45:14.090Z,100457.63
2023-03-20T12:47:49.832Z,100450.00
2023-03-20T12:50:41.402Z,100444.63
2023-03-20T12:53:46.566Z,100446.19
2023-03-20T12:56:50.924Z,100442.50
2023-03-20T12:59:53.236Z,100442.41
2023-03-20T13:02:33.770Z,100443.72
2023-03-20T13:05:28.326Z,100442.50
2023-03-20T13:08:08.833Z,100435.59
2023-03-20T13:10:39.986Z,100432.50
2023-03-20T13:13:38.457Z,100432.41
2023-03-20T13:16:19.062Z,100427.00
2023-03-20T13:19:00.016Z,100426.25
2023-03-20T13:21:40.303Z,100422.28
2023-03-20T13:24:28.961Z,100422.94
2023-03-20T13:27:20.383Z,100409.22
2023-03-20T13:30:14.372Z,100410.37
2023-03-20T13:33:09.352Z,100394.53
2023-03-20T13:36:02.838Z,100395.34
2023-03-20T13:38:35.690Z,100397.38
2023-03-20T13:41:05.731Z,100396.41
2023-03-20T13:43:40.781Z,100398.47
2023-03-20T13:46:12.055Z,100397.03
2023-03-20T13:48:42.103Z,100389.22
2023-03-20T13:51:33.756Z,100387.91
2023-03-20T13:54:13.203Z,100389.31
2023-03-20T13:57:12.059Z,100383.31
2023-03-20T14:00:07.805Z,100358.00
2023-03-20T14:03:03.448Z,100377.50
2023-03-20T14:05:37.036Z,100363.91
2023-03-20T14:08:22.608Z,100373.78
2023-03-20T14:10:55.905Z,100369.72
2023-03-20T14:13:23.100Z,100369.81
2023-03-20T14:15:56.743Z,100366.28
2023-03-20T14:18:25.801Z,100366.50
2023-03-20T14:20:56.422Z,100351.94
2023-03-20T14:23:35.085Z,100361.00
2023-03-20T14:26:07.530Z,100367.84
2023-03-20T14:28:45.608Z,100363.13
2023-03-20T14:31:23.208Z,100360.41
2023-03-20T14:34:07.879Z,100353.84
2023-03-20T14:36:58.102Z,100352.72
2023-03-20T14:39:50.123Z,100332.72
2023-03-20T14:42:36.539Z,100351.78
2023-03-20T14:45:06.727Z,100333.47
2023-03-20T14:47:42.460Z,100354.84
2023-03-20T14:50:14.121Z,100338.00
2023-03-20T14:52:40.597Z,100342.66
2023-03-20T14:55:30.087Z,100350.81
2023-03-20T14:58:26.076Z,100338.87
2023-03-20T15:00:52.706Z,100346.84
2023-03-20T15:03:21.337Z,100337.50
2023-03-20T15:05:57.529Z,100354.75
2023-03-20T15:08:31.005Z,100351.69
2023-03-20T15:11:04.909Z,100341.03
2023-03-20T15:13:34.722Z,100348.81
2023-03-20T15:16:08.193Z,100339.28
2023-03-20T15:18:40.026Z,100350.66
2023-03-20T15:21:32.781Z,100344.09
2023-03-20T15:24:01.132Z,100329.97
2023-03-20T15:26:31.358Z,100342.72
2023-03-20T15:29:03.765Z,100331.38
2023-03-20T15:31:34.196Z,100354.31
2023-03-20T15:34:05.442Z,100361.63
2023-03-20T15:36:36.363Z,100361.81
2023-03-20T15:39:14.829Z,100357.59
2023-03-20T15:41:46.724Z,100357.75
2023-03-20T15:44:16.821Z,100355.19
2023-03-20T15:47:03.317Z,100359.19
2023-03-20T15:49:32.348Z,100356.19
2023-03-20T15:52:05.488Z,100352.72
2023-03-20T15:54:36.840Z,100350.44
2023-03-20T15:57:04.835Z,100357.38
2023-03-20T15:59:33.506Z,100340.31
2023-03-20T16:02:01.730Z,100352.34
2023-03-20T16:04:28.806Z,100319.28
2023-03-20T16:06:59.220Z,100339.34
2023-03-20T16:09:27.516Z,100339.38
2023-03-20T16:11:59.974Z,100337.22
2023-03-20T16:14:31.007Z,100333.53
2023-03-20T16:17:00.116Z,100335.50
2023-03-20T16:19:28.448Z,100339.75
2023-03-20T16:21:59.039Z,100341.72
2023-03-20T16:24:31.089Z,100343.62
2023-03-20T16:26:58.001Z,100339.88
2023-03-20T16:29:27.468Z,100332.50
2023-03-20T16:32:04.376Z,100341.81
2023-03-20T16:34:37.444Z,100339.44
2023-03-20T16:37:21.381Z,100339.50
2023-03-20T16:39:48.010Z,100324.59
2023-03-20T16:42:30.319Z,100331.72
2023-03-20T16:44:58.349Z,100320.38
2023-03-20T16:47:41.907Z,100328.28
2023-03-20T16:50:16.266Z,100332.25
2023-03-20T16:52:56.646Z,100331.91
2023-03-20T16:55:28.796Z,100332.78
2023-03-20T16:57:59.436Z,100322.00
2023-03-20T17:00:32.378Z,100318.37
2023-03-20T17:03:05.095Z,100321.38
2023-03-20T17:05:45.938Z,100318.00
2023-03-20T17:08:15.626Z,100318.16
2023-03-20T17:10:55.608Z,100317.28
2023-03-20T17:13:22.521Z,100313.09
2023-03-20T17:15:49.600Z,100311.34
2023-03-20T17:18:18.339Z,100312.19
2023-03-20T17:20:45.940Z,100307.87
2023-03-20T17:23:17.474Z,100306.09
2023-03-20T17:25:45.129Z,100307.12
2023-03-20T17:28:20.174Z,100275.97
2023-03-20T17:30:50.070Z,100298.59
2023-03-20T17:33:20.556Z,100297.22
2023-03-20T17:35:48.374Z,100303.06
2023-03-20T17:38:21.356Z,100298.09
2023-03-20T17:40:52.338Z,100295.47
2023-03-20T17:43:20.236Z,100291.97
2023-03-20T17:45:49.226Z,100288.50
2023-03-20T17:48:21.034Z,100290.09
2023-03-20T17:50:50.906Z,100290.88
2023-03-20T17:53:27.673Z,100291.81
2023-03-20T17:55:55.726Z,100291.66
2023-03-20T17:58:23.442Z,100293.38
2023-03-20T18:00:51.919Z,100293.12
2023-03-20T18:03:19.599Z,100289.59
2023-03-20T18:05:48.695Z,100298.16
2023-03-20T18:08:22.247Z,100290.38
2023-03-20T18:10:51.396Z,100283.50
2023-03-20T18:13:20.584Z,100283.38
2023-03-20T18:15:49.734Z,100280.59
2023-03-20T18:18:18.799Z,100280.34
2023-03-20T18:20:46.598Z,100270.34
2023-03-20T18:23:15.539Z,100260.72
2023-03-20T18:25:42.597Z,100271.00
2023-03-20T18:28:17.922Z,100264.94
2023-03-20T18:30:44.986Z,100265.75
2023-03-20T18:33:12.239Z,100259.75
2023-03-20T18:35:40.724Z,100259.75
2023-03-20T18:38:15.327Z,100259.75
2023-03-20T18:40:46.677Z,100254.66
2023-03-20T18:43:15.087Z,100250.25
2023-03-20T18:45:41.913Z,100222.28
2023-03-20T18:48:12.035Z,100216.37
2023-03-20T18:50:43.469Z,100237.41
2023-03-20T18:53:11.662Z,100243.50
2023-03-20T18:55:38.990Z,100245.25
2023-03-20T18:58:05.997Z,100241.88
2023-03-20T19:00:39.510Z,100234.94
2023-03-20T19:03:11.426Z,100238.41
2023-03-20T19:05:39.093Z,100243.59
2023-03-20T19:08:07.123Z,100228.03
2023-03-20T19:10:38.305Z,100220.16
2023-03-20T19:13:07.127Z,100228.03
2023-03-20T19:15:38.100Z,100234.94
2023-03-20T19:18:17.226Z,100234.03
2023-03-20T19:20:47.384Z,100237.53
2023-03-20T19:23:17.332Z,100218.00
2023-03-20T19:25:51.227Z,100237.41
2023-03-20T19:28:34.509Z,100229.63
2023-03-20T19:31:05.279Z,100229.63
2023-03-20T19:33:32.686Z,100224.50
2023-03-20T19:36:03.150Z,100228.84
2023-03-20T19:38:31.271Z,100228.84
2023-03-20T19:40:59.340Z,100218.47
2023-03-20T19:43:25.910Z,100216.72
2023-03-20T19:45:56.483Z,100222.09
2023-03-20T19:48:43.218Z,100204.00
2023-03-20T19:51:19.661Z,100219.47
2023-03-20T19:53:47.099Z,100225.59
2023-03-20T19:56:15.672Z,100210.81
2023-03-20T19:58:43.394Z,100211.84
2023-03-20T20:01:16.260Z,100207.50
2023-03-20T20:03:43.122Z,100205.75
2023-03-20T20:06:09.990Z,100213.78
2023-03-20T20:08:47.894Z,100207.50
2023-03-20T20:11:18.005Z,100210.03
2023-03-20T20:14:04.743Z,100206.78
2023-03-20T20:16:34.570Z,100204.84
2023-03-20T20:19:01.851Z,100203.03
2023-03-20T20:24:15.740Z,100177.66
2023-03-20T20:26:53.210Z,100197.84
2023-03-20T20:29:23.856Z,100195.19
2023-03-20T20:31:50.481Z,100184.81
2023-03-20T20:37:59.854Z,100179.63
2023-03-20T20:39:52.807Z,100174.38
2023-03-20T20:42:19.994Z,100177.09
2023-03-20T20:44:47.160Z,100166.72
2023-03-20T20:47:14.574Z,100172.00
2023-03-20T20:49:42.242Z,100167.69
2023-03-20T20:52:09.257Z,100170.22
2023-03-20T20:54:35.963Z,100161.66
2023-03-20T20:57:03.119Z,100158.16
2023-03-20T20:59:29.858Z,100153.75
2023-03-20T21:01:56.768Z,100152.97
2023-03-20T21:04:23.666Z,100148.69
2023-03-20T21:07:08.712Z,100141.91
2023-03-20T21:09:36.837Z,100143.62
2023-03-20T21:12:04.292Z,100136.72
2023-03-20T21:14:31.000Z,100132.47
2023-03-20T21:17:00.468Z,100137.78
2023-03-20T21:19:29.953Z,100126.75
2023-03-20T21:21:56.780Z,100129.47
2023-03-20T21:24:33.801Z,100126.88
2023-03-20T21:27:04.706Z,100109.19
2023-03-20T21:29:31.809Z,100126.09
2023-03-20T21:31:58.462Z,100114.16
2023-03-20T21:34:25.906Z,100118.31
2023-03-20T21:36:52.836Z,100112.47
2023-03-20T21:39:19.841Z,100112.59
2023-03-20T21:41:46.724Z,100111.03
2023-03-20T21:44:18.176Z,100112.84
2023-03-20T21:50:37.028Z,100098.37
2023-03-20T21:56:02.281Z,100092.59
2023-03-20T21:58:59.388Z,100096.06
2023-03-20T22:04:06.207Z,100086.69
2023-03-20T22:26:58.403Z,100070.91
2023-03-20T22:40:43.109Z,100067.75
2023-03-20T22:45:28.939Z,100060.72
2023-03-20T22:48:01.589Z,100062.19
2023-03-20T22:50:28.411Z,100054.81
2023-03-20T22:52:55.392Z,100056.06
2023-03-20T22:55:23.466Z,100047.56
2023-03-20T22:58:05.904Z,100038.22
2023-03-20T23:00:34.306Z,100030.81
2023-03-20T23:03:14.154Z,100030.63
2023-03-20T23:05:42.460Z,100034.00
2023-03-20T23:08:11.378Z,100035.69
2023-03-20T23:10:42.544Z,100038.28
2023-03-20T23:13:09.769Z,100018.62
2023-03-20T23:15:36.756Z,100024.53
2023-03-20T23:18:04.838Z,100026.94
2023-03-20T23:20:31.725Z,100020.37
2023-03-20T23:22:58.464Z,100015.25
2023-03-20T23:25:38.269Z,100014.34
2023-03-20T23:28:07.795Z,100017.72
2023-03-20T23:30:48.182Z,100014.63
2023-03-20T23:33:20.806Z,99994.50
2023-03-20T23:35:49.750Z,100006.94
2023-03-20T23:38:16.369Z,100001.72
2023-03-20T23:40:48.475Z,99997.25
2023-03-20T23:43:15.020Z,99995.50
2023-03-20T23:45:41.549Z,99993.63
2023-03-20T23:48:08.372Z,99989.16
2023-03-20T23:50:49.958Z,99989.16
2023-03-20T23:56:05.939Z,99994.22
2023-03-20T23:58:33.807Z,99989.84
